createdAt,value
2018-04-30T00:02:00.153Z,104522.43
2018-04-30T00:04:27.687Z,104545.81
2018-04-30T00:06:55.226Z,104518.36
2018-04-30T00:09:22.790Z,104511.25
2018-04-30T00:11:50.788Z,104500.06
2018-04-30T00:14:18.327Z,104517.34
2018-04-30T00:16:45.860Z,104524.46
2018-04-30T00:19:13.441Z,104513.28
2018-04-30T00:21:40.973Z,104501.08
2018-04-30T00:24:08.513Z,104493.97
2018-04-30T00:26:36.077Z,104499.05
2018-04-30T00:29:03.667Z,104503.11
2018-04-30T00:31:31.199Z,104543.78
2018-04-30T00:33:58.739Z,104505.15
2018-04-30T00:36:26.300Z,104525.48
2018-04-30T00:38:53.882Z,104501.08
2018-04-30T00:41:21.833Z,104521.41
2018-04-30T00:43:49.362Z,104514.30
2018-04-30T00:46:16.907Z,104503.11
2018-04-30T00:48:44.475Z,104506.16
2018-04-30T00:51:12.022Z,104483.80
2018-04-30T00:53:39.589Z,104470.59
2018-04-30T00:56:07.119Z,104489.90
2018-04-30T00:58:34.679Z,104428.91
2018-04-30T01:01:02.213Z,104399.42
2018-04-30T01:03:30.230Z,104393.32
2018-04-30T01:05:57.763Z,104220.51
2018-04-30T01:08:25.288Z,104221.53
2018-04-30T01:10:52.856Z,104264.22
2018-04-30T01:13:20.436Z,104276.42
2018-04-30T01:15:48.162Z,104316.06
2018-04-30T01:18:15.700Z,104324.20
2018-04-30T01:20:43.265Z,104335.37
2018-04-30T01:23:11.259Z,104245.92
2018-04-30T01:25:38.807Z,104262.19
2018-04-30T01:28:06.347Z,104334.36
2018-04-30T01:30:33.914Z,104314.03
2018-04-30T01:33:01.446Z,104322.16
2018-04-30T01:35:29.016Z,104312.00
2018-04-30T01:37:56.547Z,104319.11
2018-04-30T01:40:24.104Z,104340.46
2018-04-30T01:42:51.880Z,104327.24
2018-04-30T01:45:19.428Z,104345.55
2018-04-30T01:47:46.966Z,104332.33
2018-04-30T01:50:14.902Z,104349.61
2018-04-30T01:52:42.435Z,104368.92
2018-04-30T01:55:09.984Z,104377.06
2018-04-30T01:57:37.547Z,104388.24
2018-04-30T02:00:05.511Z,104405.52
2018-04-30T02:02:33.077Z,104415.69
2018-04-30T02:05:00.616Z,104416.70
2018-04-30T02:07:28.288Z,104397.39
2018-04-30T02:09:55.874Z,104439.06
2018-04-30T02:12:23.409Z,104430.94
2018-04-30T02:14:50.975Z,104430.94
2018-04-30T02:17:18.530Z,104453.30
2018-04-30T02:19:46.060Z,104479.73
2018-04-30T02:22:14.162Z,104504.13
2018-04-30T02:24:41.695Z,104517.34
2018-04-30T02:27:09.231Z,104519.38
2018-04-30T02:29:37.123Z,104511.25
2018-04-30T02:32:04.663Z,104555.98
2018-04-30T02:34:32.438Z,104562.08
2018-04-30T02:36:59.991Z,104533.61
2018-04-30T02:39:27.527Z,104582.41
2018-04-30T02:41:55.106Z,104568.18
2018-04-30T02:44:22.654Z,104578.34
2018-04-30T02:46:50.186Z,104587.49
2018-04-30T02:49:17.740Z,104534.63
2018-04-30T02:51:45.281Z,104592.58
2018-04-30T02:54:13.275Z,104595.63
2018-04-30T02:56:40.806Z,104587.49
2018-04-30T02:59:08.408Z,104638.33
2018-04-30T03:01:35.923Z,104647.47
2018-04-30T03:04:03.460Z,104644.42
2018-04-30T03:06:30.994Z,104635.27
2018-04-30T03:08:58.561Z,104645.44
2018-04-30T03:11:26.129Z,104640.36
2018-04-30T03:13:53.672Z,104651.54
2018-04-30T03:16:21.236Z,104664.76
2018-04-30T03:18:48.784Z,104698.31
2018-04-30T03:21:16.353Z,104682.05
2018-04-30T03:23:43.886Z,104676.95
2018-04-30T03:26:11.452Z,104730.84
2018-04-30T03:28:38.990Z,104701.36
2018-04-30T03:31:06.567Z,104714.58
2018-04-30T03:33:34.144Z,104728.81
2018-04-30T03:36:01.684Z,104699.33
2018-04-30T03:38:29.444Z,104724.74
2018-04-30T03:40:57.019Z,104738.98
2018-04-30T03:43:24.571Z,104727.80
2018-04-30T03:45:52.134Z,104731.86
2018-04-30T03:48:19.674Z,104716.61
2018-04-30T03:50:47.241Z,104708.47
2018-04-30T03:53:14.771Z,104746.09
2018-04-30T03:55:42.400Z,104715.59
2018-04-30T03:58:09.949Z,104717.63
2018-04-30T04:00:49.243Z,104709.49
2018-04-30T04:03:28.782Z,104702.38
2018-04-30T04:06:08.262Z,104717.63
2018-04-30T04:08:35.831Z,104732.88
2018-04-30T04:11:03.371Z,104722.70
2018-04-30T04:13:30.931Z,104709.49
2018-04-30T04:15:58.472Z,104697.30
2018-04-30T04:18:26.071Z,104710.51
2018-04-30T04:20:53.747Z,104682.05
2018-04-30T04:23:21.356Z,104690.17
2018-04-30T04:25:48.890Z,104724.74
2018-04-30T04:28:16.454Z,104681.03
2018-04-30T04:30:44.001Z,104665.77
2018-04-30T04:33:11.563Z,104685.09
2018-04-30T04:35:39.099Z,104675.94
2018-04-30T04:38:06.659Z,104667.81
2018-04-30T04:40:34.201Z,104649.51
2018-04-30T04:43:01.760Z,104676.95
2018-04-30T04:45:29.316Z,104604.77
2018-04-30T04:47:56.855Z,104654.59
2018-04-30T04:50:24.423Z,104557.00
2018-04-30T04:52:51.964Z,104572.25
2018-04-30T04:55:19.528Z,104628.16
2018-04-30T04:57:47.064Z,104542.77
2018-04-30T05:00:14.658Z,104605.80
2018-04-30T05:02:42.202Z,104644.42
2018-04-30T05:05:09.745Z,104610.88
2018-04-30T05:07:37.296Z,104607.83
2018-04-30T05:10:04.847Z,104606.81
2018-04-30T05:12:32.402Z,104609.86
2018-04-30T05:14:59.967Z,104597.66
2018-04-30T05:17:27.515Z,104589.53
2018-04-30T05:19:55.072Z,104565.13
2018-04-30T05:22:22.612Z,104593.59
2018-04-30T05:24:50.162Z,104536.66
2018-04-30T05:27:17.705Z,104578.34
2018-04-30T05:29:45.274Z,104589.53
2018-04-30T05:32:12.955Z,104601.73
2018-04-30T05:34:40.506Z,104590.55
2018-04-30T05:37:08.039Z,104601.73
2018-04-30T05:39:35.614Z,104589.53
2018-04-30T05:42:03.211Z,104616.98
2018-04-30T05:44:30.811Z,104579.36
2018-04-30T05:46:58.341Z,104537.67
2018-04-30T05:49:25.870Z,104588.52
2018-04-30T05:51:53.845Z,104557.00
2018-04-30T05:54:21.378Z,104553.95
2018-04-30T05:56:48.908Z,104527.52
2018-04-30T05:59:16.465Z,104545.81
2018-04-30T06:01:43.986Z,104545.81
2018-04-30T06:04:11.608Z,104523.45
2018-04-30T06:06:39.137Z,104530.56
2018-04-30T06:09:06.678Z,104485.83
2018-04-30T06:11:34.437Z,104494.98
2018-04-30T06:14:01.967Z,104481.77
2018-04-30T06:16:29.498Z,104493.97
2018-04-30T06:18:57.929Z,104433.98
2018-04-30T06:21:25.596Z,104457.37
2018-04-30T06:23:53.130Z,104438.05
2018-04-30T06:26:20.662Z,104397.39
2018-04-30T06:28:48.222Z,104422.80
2018-04-30T06:31:16.229Z,104406.54
2018-04-30T06:33:43.759Z,104393.32
2018-04-30T06:36:11.286Z,104417.72
2018-04-30T06:38:39.270Z,104376.04
2018-04-30T06:41:06.806Z,104391.29
2018-04-30T06:43:34.338Z,104449.23
2018-04-30T06:46:01.881Z,104413.66
2018-04-30T06:48:29.429Z,104415.69
2018-04-30T06:50:57.110Z,104360.80
2018-04-30T06:53:24.705Z,104397.39
2018-04-30T06:55:52.213Z,104356.73
2018-04-30T06:58:20.171Z,104364.86
2018-04-30T07:00:47.692Z,104385.19
2018-04-30T07:03:15.218Z,104356.73
2018-04-30T07:05:42.821Z,104361.81
2018-04-30T07:08:10.346Z,104350.62
2018-04-30T07:10:37.866Z,104387.22
2018-04-30T07:13:05.418Z,104331.31
2018-04-30T07:15:32.993Z,104356.73
2018-04-30T07:18:00.517Z,104281.50
2018-04-30T07:20:28.045Z,104302.84
2018-04-30T07:22:56.013Z,104343.52
2018-04-30T07:25:23.533Z,104276.42
2018-04-30T07:27:51.144Z,104360.80
2018-04-30T07:30:18.674Z,104332.33
2018-04-30T07:32:46.203Z,104313.02
2018-04-30T07:35:13.725Z,104295.73
2018-04-30T07:37:41.273Z,104292.69
2018-04-30T07:40:08.829Z,104298.78
2018-04-30T07:42:36.441Z,104300.81
2018-04-30T07:45:03.981Z,104316.06
2018-04-30T07:47:31.509Z,104326.23
2018-04-30T07:49:59.073Z,104258.13
2018-04-30T07:52:26.601Z,104270.31
2018-04-30T07:54:54.153Z,104258.13
2018-04-30T07:57:21.776Z,104286.59
2018-04-30T07:59:49.246Z,104236.77
2018-04-30T08:02:16.769Z,104290.66
2018-04-30T08:04:44.321Z,104292.69
2018-04-30T08:07:11.850Z,104279.47
2018-04-30T08:09:39.397Z,104274.39
2018-04-30T08:12:06.970Z,104259.14
2018-04-30T08:14:34.511Z,104247.95
2018-04-30T08:17:02.062Z,104221.53
2018-04-30T08:19:29.780Z,104205.27
2018-04-30T08:21:57.315Z,104205.27
2018-04-30T08:24:24.846Z,104149.36
2018-04-30T08:26:52.432Z,104164.60
2018-04-30T08:29:19.969Z,104129.02
2018-04-30T08:31:47.539Z,104143.25
2018-04-30T08:34:15.062Z,104111.74
2018-04-30T08:36:42.656Z,104123.94
2018-04-30T08:39:10.215Z,104077.19
2018-04-30T08:41:37.749Z,104040.59
2018-04-30T08:44:05.270Z,103895.23
2018-04-30T08:46:32.859Z,103899.30
2018-04-30T08:49:00.392Z,103901.34
2018-04-30T08:51:27.909Z,103888.13
2018-04-30T08:53:55.488Z,103866.78
2018-04-30T08:56:23.001Z,103798.68
2018-04-30T08:58:50.539Z,103800.71
2018-04-30T09:01:18.094Z,103828.16
2018-04-30T09:03:45.620Z,103692.98
2018-04-30T09:06:13.666Z,103792.58
2018-04-30T09:08:41.189Z,103817.98
2018-04-30T09:11:08.790Z,103847.47
2018-04-30T09:13:36.334Z,103727.53
2018-04-30T09:16:03.852Z,103808.84
2018-04-30T09:18:31.405Z,103678.75
2018-04-30T09:20:58.931Z,103775.30
2018-04-30T09:23:26.492Z,103770.22
2018-04-30T09:25:54.071Z,103848.48
2018-04-30T09:28:21.599Z,103864.75
2018-04-30T09:30:49.121Z,103883.04
2018-04-30T09:33:16.866Z,103784.45
2018-04-30T09:35:44.378Z,103783.44
2018-04-30T09:38:11.893Z,103849.50
2018-04-30T09:40:39.465Z,103855.59
2018-04-30T09:43:07.002Z,103870.84
2018-04-30T09:45:34.527Z,103853.56
2018-04-30T09:48:02.065Z,103883.04
2018-04-30T09:50:29.577Z,103852.55
2018-04-30T09:52:57.245Z,103860.67
2018-04-30T09:55:24.766Z,103881.01
2018-04-30T09:57:52.357Z,103847.47
2018-04-30T10:00:20.266Z,103854.58
2018-04-30T10:02:47.782Z,103858.64
2018-04-30T10:05:15.293Z,103788.52
2018-04-30T10:07:43.199Z,103741.77
2018-04-30T10:10:10.721Z,103839.34
2018-04-30T10:12:38.236Z,103821.04
2018-04-30T10:15:05.887Z,103955.20
2018-04-30T10:17:33.409Z,104018.23
2018-04-30T10:20:00.925Z,104002.98
2018-04-30T10:22:28.465Z,103970.45
2018-04-30T10:24:55.979Z,103949.11
2018-04-30T10:27:23.513Z,103918.61
2018-04-30T10:29:51.035Z,103924.72
2018-04-30T10:32:18.556Z,103987.73
2018-04-30T10:34:46.093Z,103862.72
2018-04-30T10:37:13.629Z,103885.08
2018-04-30T10:39:41.145Z,103893.20
2018-04-30T10:42:08.681Z,103878.98
2018-04-30T10:44:36.200Z,103871.86
2018-04-30T10:47:03.751Z,103793.59
2018-04-30T10:49:31.261Z,103637.08
2018-04-30T10:51:59.011Z,103791.56
2018-04-30T10:54:26.557Z,103680.78
2018-04-30T10:56:54.073Z,103768.19
2018-04-30T10:59:21.639Z,103648.25
2018-04-30T11:01:49.152Z,103600.48
2018-04-30T11:04:16.661Z,103699.08
2018-04-30T11:06:44.199Z,103837.30
2018-04-30T11:09:11.705Z,103685.86
2018-04-30T11:11:39.241Z,103708.22
2018-04-30T11:14:06.770Z,103760.05
2018-04-30T11:16:34.425Z,103776.31
2018-04-30T11:19:01.947Z,103691.95
2018-04-30T11:21:29.494Z,103766.16
2018-04-30T11:23:57.251Z,103661.47
2018-04-30T11:26:24.781Z,103679.77
2018-04-30T11:28:52.317Z,103627.92
2018-04-30T11:31:19.917Z,103643.17
2018-04-30T11:33:47.498Z,103597.44
2018-04-30T11:36:15.028Z,103557.80
2018-04-30T11:38:42.651Z,103477.52
2018-04-30T11:41:10.185Z,103653.34
2018-04-30T11:43:37.749Z,103372.83
2018-04-30T11:46:05.407Z,103430.77
2018-04-30T11:48:32.933Z,103505.97
2018-04-30T11:51:00.498Z,103542.55
2018-04-30T11:53:28.063Z,103437.88
2018-04-30T11:55:55.644Z,103586.26
2018-04-30T11:58:23.237Z,103374.87
2018-04-30T12:00:50.771Z,103506.98
2018-04-30T12:03:18.323Z,103400.27
2018-04-30T12:05:45.889Z,103378.93
2018-04-30T12:08:13.574Z,103413.48
2018-04-30T12:10:41.093Z,103242.75
2018-04-30T12:13:08.623Z,103241.73
2018-04-30T12:15:36.183Z,103256.98
2018-04-30T12:18:03.747Z,103283.40
2018-04-30T12:20:31.379Z,103103.53
2018-04-30T12:22:58.901Z,103200.07
2018-04-30T12:25:26.467Z,103223.44
2018-04-30T12:27:54.022Z,103096.42
2018-04-30T12:30:21.556Z,103087.27
2018-04-30T12:32:49.300Z,103040.53
2018-04-30T12:35:16.826Z,102854.57
2018-04-30T12:37:44.371Z,102536.54
2018-04-30T12:40:11.925Z,102404.45
2018-04-30T12:42:39.450Z,102655.42
2018-04-30T12:45:07.274Z,102729.59
2018-04-30T12:47:34.789Z,102758.04
2018-04-30T12:50:02.378Z,102903.34
2018-04-30T12:52:29.940Z,102883.02
2018-04-30T12:54:57.483Z,102950.09
2018-04-30T12:57:25.059Z,102953.14
2018-04-30T12:59:52.590Z,103134.02
2018-04-30T13:02:20.116Z,102928.75
2018-04-30T13:04:47.704Z,103073.05
2018-04-30T13:07:15.238Z,103176.70
2018-04-30T13:09:42.781Z,103271.20
2018-04-30T13:12:10.367Z,103160.44
2018-04-30T13:14:37.909Z,103300.68
2018-04-30T13:17:05.493Z,103202.11
2018-04-30T13:19:33.013Z,102981.59
2018-04-30T13:22:00.522Z,102718.41
2018-04-30T13:24:28.228Z,102713.33
2018-04-30T13:26:55.742Z,102692.00
2018-04-30T13:29:23.252Z,102705.20
2018-04-30T13:31:51.268Z,102681.84
2018-04-30T13:34:18.781Z,102851.52
2018-04-30T13:36:46.297Z,103074.06
2018-04-30T13:39:13.842Z,103129.95
2018-04-30T13:41:41.379Z,103043.58
2018-04-30T13:44:08.950Z,102987.69
2018-04-30T13:46:36.457Z,103249.87
2018-04-30T13:49:03.981Z,103276.29
2018-04-30T13:51:31.637Z,103342.34
2018-04-30T13:53:59.167Z,103266.13
2018-04-30T13:56:26.688Z,103291.53
2018-04-30T13:58:54.546Z,103179.75
2018-04-30T14:01:22.128Z,102951.11
2018-04-30T14:03:49.610Z,102750.93
2018-04-30T14:06:17.158Z,102762.11
2018-04-30T14:08:44.684Z,102722.48
2018-04-30T14:11:12.247Z,102635.09
2018-04-30T14:13:39.763Z,102687.93
2018-04-30T14:16:07.348Z,102631.03
2018-04-30T14:18:34.866Z,102518.25
2018-04-30T14:21:02.392Z,102119.99
2018-04-30T14:23:29.930Z,102040.75
2018-04-30T14:25:57.666Z,102231.74
2018-04-30T14:28:25.313Z,102360.77
2018-04-30T14:30:52.833Z,102286.61
2018-04-30T14:33:20.594Z,102359.75
2018-04-30T14:35:48.107Z,102474.56
2018-04-30T14:38:15.635Z,102506.05
2018-04-30T14:40:43.174Z,102600.55
2018-04-30T14:43:10.709Z,102578.20
2018-04-30T14:45:38.458Z,102631.03
2018-04-30T14:48:05.979Z,102960.25
2018-04-30T14:50:33.506Z,103259.02
2018-04-30T14:53:01.275Z,103555.77
2018-04-30T14:55:28.800Z,103885.08
2018-04-30T14:57:56.330Z,103991.80
2018-04-30T15:00:23.878Z,104026.36
2018-04-30T15:02:51.420Z,104051.77
2018-04-30T15:05:19.767Z,103950.12
2018-04-30T15:07:47.292Z,103849.50
2018-04-30T15:10:14.809Z,103746.84
2018-04-30T15:12:42.482Z,103667.56
2018-04-30T15:15:10.019Z,103604.55
2018-04-30T15:17:37.530Z,103393.16
2018-04-30T15:20:05.066Z,103466.33
2018-04-30T15:22:32.581Z,103681.80
2018-04-30T15:25:00.126Z,103691.95
2018-04-30T15:27:27.641Z,103750.91
2018-04-30T15:29:55.187Z,103588.29
2018-04-30T15:32:22.731Z,103359.63
2018-04-30T15:34:50.275Z,103438.89
2018-04-30T15:37:18.006Z,103357.59
2018-04-30T15:39:45.509Z,103464.30
2018-04-30T15:42:13.108Z,103374.87
2018-04-30T15:44:40.589Z,103474.46
2018-04-30T15:47:08.106Z,103488.69
2018-04-30T15:49:36.077Z,103496.82
2018-04-30T15:52:03.591Z,103505.97
2018-04-30T15:54:31.177Z,103554.75
2018-04-30T15:56:58.681Z,103525.28
2018-04-30T15:59:26.193Z,103468.37
2018-04-30T16:01:53.739Z,103558.81
2018-04-30T16:04:21.253Z,103566.95
2018-04-30T16:06:49.190Z,103533.41
2018-04-30T16:09:16.705Z,103557.80
2018-04-30T16:11:44.243Z,103501.91
2018-04-30T16:14:11.823Z,103481.58
2018-04-30T16:16:39.372Z,103517.15
2018-04-30T16:19:06.909Z,103461.25
2018-04-30T16:21:34.422Z,103534.42
2018-04-30T16:24:01.990Z,103413.48
2018-04-30T16:26:29.506Z,103397.23
2018-04-30T16:28:57.026Z,103372.83
2018-04-30T16:31:24.732Z,103468.37
2018-04-30T16:33:52.253Z,103436.86
2018-04-30T16:36:19.798Z,103498.86
2018-04-30T16:38:47.343Z,103508.00
2018-04-30T16:41:14.894Z,103473.45
2018-04-30T16:43:42.469Z,103579.14
2018-04-30T16:46:10.963Z,103646.22
2018-04-30T16:48:38.477Z,103666.55
2018-04-30T16:51:06.058Z,103703.14
2018-04-30T16:53:33.574Z,103649.27
2018-04-30T16:56:01.090Z,103757.00
2018-04-30T16:58:28.672Z,103679.77
2018-04-30T17:00:56.189Z,103712.28
2018-04-30T17:03:23.720Z,103737.70
2018-04-30T17:05:51.682Z,103635.04
2018-04-30T17:08:19.193Z,103810.88
2018-04-30T17:10:46.705Z,103747.86
2018-04-30T17:13:14.284Z,103839.34
2018-04-30T17:15:41.802Z,103933.86
2018-04-30T17:18:09.325Z,103921.66
2018-04-30T17:20:37.308Z,103926.75
2018-04-30T17:23:04.826Z,103958.25
2018-04-30T17:25:32.339Z,104006.03
2018-04-30T17:27:59.877Z,103924.72
2018-04-30T17:30:27.452Z,103808.84
2018-04-30T17:32:54.973Z,103761.07
2018-04-30T17:35:22.489Z,103765.14
2018-04-30T17:37:50.006Z,103647.23
2018-04-30T17:40:17.890Z,103558.81
2018-04-30T17:42:45.406Z,103650.28
2018-04-30T17:45:12.908Z,103747.86
2018-04-30T17:47:40.443Z,103757.00
2018-04-30T17:50:07.961Z,103742.78
2018-04-30T17:52:35.521Z,103804.77
2018-04-30T17:55:03.043Z,103767.17
2018-04-30T17:57:30.553Z,103846.45
2018-04-30T17:59:58.312Z,103896.25
2018-04-30T18:02:25.843Z,103949.11
2018-04-30T18:04:53.359Z,103962.33
2018-04-30T18:07:21.406Z,104058.88
2018-04-30T18:09:48.922Z,104073.11
2018-04-30T18:12:16.429Z,104054.82
2018-04-30T18:14:43.969Z,104006.03
2018-04-30T18:17:11.513Z,104113.77
2018-04-30T18:19:39.055Z,104096.50
2018-04-30T18:22:06.574Z,104099.55
2018-04-30T18:24:34.138Z,104105.64
2018-04-30T18:27:01.652Z,104123.94
2018-04-30T18:29:29.169Z,104107.67
2018-04-30T18:31:56.741Z,104143.25
2018-04-30T18:34:24.267Z,104126.98
2018-04-30T18:36:51.790Z,104132.08
2018-04-30T18:39:19.340Z,104151.39
2018-04-30T18:41:46.856Z,104096.50
2018-04-30T18:44:14.796Z,104258.13
2018-04-30T18:46:42.307Z,104260.16
2018-04-30T18:49:09.821Z,104467.53
2018-04-30T18:51:37.377Z,104596.64
2018-04-30T18:54:04.906Z,104674.92
2018-04-30T18:56:32.659Z,104596.64
2018-04-30T18:59:00.234Z,104669.84
2018-04-30T19:01:27.750Z,104654.59
2018-04-30T19:03:55.309Z,104684.08
2018-04-30T19:06:22.822Z,104726.77
2018-04-30T19:08:50.334Z,104764.39
2018-04-30T19:11:17.882Z,104782.69
2018-04-30T19:13:45.432Z,104753.20
2018-04-30T19:16:12.951Z,104721.69
2018-04-30T19:18:40.489Z,104745.08
2018-04-30T19:21:08.034Z,104746.09
2018-04-30T19:23:36.069Z,104739.99
2018-04-30T19:26:03.588Z,104691.19
2018-04-30T19:28:31.105Z,104713.56
2018-04-30T19:30:58.665Z,104718.64
2018-04-30T19:33:26.248Z,104753.20
2018-04-30T19:35:53.794Z,104722.70
2018-04-30T19:38:21.338Z,104736.94
2018-04-30T19:40:48.849Z,104763.38
2018-04-30T19:43:16.417Z,104736.94
2018-04-30T19:45:43.932Z,104756.26
2018-04-30T19:48:11.684Z,104703.39
2018-04-30T19:50:39.214Z,104729.83
2018-04-30T19:53:06.961Z,104756.26
2018-04-30T19:55:34.474Z,104745.08
2018-04-30T19:58:01.996Z,104706.44
2018-04-30T20:00:29.562Z,104756.26
2018-04-30T20:02:57.077Z,104749.14
2018-04-30T20:05:24.585Z,104690.17
2018-04-30T20:07:52.130Z,104753.20
2018-04-30T20:10:19.685Z,104736.94
2018-04-30T20:12:47.227Z,104778.63
2018-04-30T20:15:14.827Z,104734.91
2018-04-30T20:17:42.358Z,104736.94
2018-04-30T20:20:09.870Z,104757.27
2018-04-30T20:22:37.419Z,104804.04
2018-04-30T20:25:04.929Z,104811.16
2018-04-30T20:27:32.879Z,104830.48
2018-04-30T20:30:00.398Z,104835.56
2018-04-30T20:32:27.905Z,104812.17
2018-04-30T20:34:56.210Z,104850.81
2018-04-30T20:37:23.721Z,104956.55
2018-04-30T20:39:51.240Z,104881.31
2018-04-30T20:42:18.806Z,105022.64
2018-04-30T20:44:46.317Z,104992.14
2018-04-30T20:47:13.862Z,105102.96
2018-04-30T20:49:41.385Z,105068.39
2018-04-30T20:52:09.118Z,105170.07
2018-04-30T20:54:36.655Z,105221.93
2018-04-30T20:57:04.189Z,105324.63
2018-04-30T20:59:31.732Z,105314.45
2018-04-30T21:01:59.242Z,105329.71
2018-04-30T21:04:26.783Z,105387.67
2018-04-30T21:06:54.410Z,105372.42
2018-04-30T21:09:21.940Z,105375.47
2018-04-30T21:11:49.482Z,105387.67
2018-04-30T21:14:17.027Z,105403.94
2018-04-30T21:16:44.607Z,105388.69
2018-04-30T21:19:12.179Z,105332.77
2018-04-30T21:21:39.693Z,105409.03
2018-04-30T21:24:07.236Z,105431.40
2018-04-30T21:26:34.937Z,105408.01
2018-04-30T21:29:02.467Z,105389.70
2018-04-30T21:31:29.983Z,105416.14
2018-04-30T21:33:57.530Z,105451.73
2018-04-30T21:36:25.054Z,105442.58
2018-04-30T21:38:52.606Z,105433.44
2018-04-30T21:41:20.358Z,105440.55
2018-04-30T21:43:48.049Z,105397.84
2018-04-30T21:46:15.574Z,105446.66
2018-04-30T21:48:43.117Z,105433.44
2018-04-30T21:51:10.770Z,105481.22
2018-04-30T21:53:38.281Z,105510.72
2018-04-30T21:56:06.253Z,105452.75
2018-04-30T21:58:34.002Z,105499.53
2018-04-30T22:01:01.526Z,105456.81
2018-04-30T22:03:29.082Z,105474.11
2018-04-30T22:05:56.621Z,105483.26
2018-04-30T22:08:24.190Z,105513.77
2018-04-30T22:10:51.790Z,105504.61
2018-04-30T22:13:19.310Z,105539.19
2018-04-30T22:15:46.845Z,105538.17
2018-04-30T22:18:14.592Z,105585.97
2018-04-30T22:20:42.101Z,105586.98
2018-04-30T22:23:09.613Z,105634.78
2018-04-30T22:25:37.306Z,105621.56
2018-04-30T22:28:04.830Z,105660.20
2018-04-30T22:30:32.374Z,105645.97
2018-04-30T22:33:00.035Z,105639.86
2018-04-30T22:35:27.558Z,105637.83
2018-04-30T22:37:55.082Z,105634.78
2018-04-30T22:40:22.621Z,105625.63
2018-04-30T22:42:50.205Z,105658.17
2018-04-30T22:45:17.735Z,105651.05
2018-04-30T22:47:45.259Z,105678.51
2018-04-30T22:50:12.937Z,105645.97
2018-04-30T22:52:40.466Z,105675.45
2018-04-30T22:55:07.993Z,105712.06
2018-04-30T22:57:35.543Z,105642.91
2018-04-30T23:00:03.074Z,105653.08
2018-04-30T23:02:30.630Z,105727.32
2018-04-30T23:04:58.147Z,105683.59
2018-04-30T23:07:25.723Z,105698.84
2018-04-30T23:09:53.330Z,105714.10
2018-04-30T23:12:20.803Z,105738.50
2018-04-30T23:14:48.385Z,105731.39
2018-04-30T23:17:15.919Z,105697.83
2018-04-30T23:19:43.817Z,105654.09
2018-04-30T23:22:15.300Z,105714.10
2018-04-30T23:24:42.859Z,105656.14
2018-04-30T23:27:10.534Z,105669.35
2018-04-30T23:29:38.062Z,105688.67
2018-04-30T23:32:05.590Z,105696.81
2018-04-30T23:34:33.565Z,105688.67
2018-04-30T23:37:01.152Z,105626.64
2018-04-30T23:39:28.650Z,105678.51
2018-04-30T23:41:56.217Z,105640.88
2018-04-30T23:44:23.742Z,105668.34
2018-04-30T23:46:51.333Z,105641.90
2018-04-30T23:49:18.862Z,105654.09
2018-04-30T23:51:46.770Z,105631.73
2018-04-30T23:54:14.311Z,105663.25
2018-04-30T23:56:41.834Z,105643.94
2018-04-30T23:59:09.833Z,105640.88
